createdAt,value
2023-03-19T00:01:06.392Z,77.46
2023-03-19T00:04:17.359Z,77.37
2023-03-19T00:07:25.668Z,77.89
2023-03-19T00:10:33.830Z,78.33
2023-03-19T00:13:42.023Z,78.70
2023-03-19T00:16:50.685Z,78.19
2023-03-19T00:20:00.222Z,78.70
2023-03-19T00:23:09.165Z,77.99
2023-03-19T00:26:17.333Z,77.36
2023-03-19T00:29:26.139Z,76.87
2023-03-19T00:32:35.639Z,76.89
2023-03-19T00:35:45.420Z,77.25
2023-03-19T00:38:54.116Z,78.39
2023-03-19T00:42:02.850Z,78.71
2023-03-19T00:45:13.173Z,78.19
2023-03-19T00:48:22.215Z,78.04
2023-03-19T00:51:31.703Z,77.84
2023-03-19T00:54:39.840Z,77.43
2023-03-19T00:57:49.256Z,78.29
2023-03-19T01:00:57.704Z,78.17
2023-03-19T01:04:06.316Z,78.62
2023-03-19T01:07:16.488Z,78.82
2023-03-19T01:10:26.078Z,79.91
2023-03-19T01:13:34.290Z,79.31
2023-03-19T01:16:42.508Z,79.41
2023-03-19T01:19:51.026Z,79.10
2023-03-19T01:23:01.521Z,79.64
2023-03-19T01:26:09.982Z,80.13
2023-03-19T01:29:19.099Z,79.82
2023-03-19T01:32:27.884Z,79.34
2023-03-19T01:35:54.910Z,79.89
2023-03-19T01:39:09.967Z,78.78
2023-03-19T01:42:18.867Z,78.85
2023-03-19T01:45:58.182Z,78.97
2023-03-19T01:49:25.289Z,79.13
2023-03-19T01:52:46.877Z,79.34
2023-03-19T01:56:13.636Z,79.12
2023-03-19T01:59:43.272Z,78.73
2023-03-19T02:03:13.947Z,78.22
2023-03-19T02:06:49.100Z,78.38
2023-03-19T02:09:58.831Z,77.81
2023-03-19T02:13:09.194Z,78.29
2023-03-19T02:16:18.173Z,78.21
2023-03-19T02:19:36.940Z,78.09
2023-03-19T02:22:57.754Z,78.02
2023-03-19T02:26:10.262Z,77.89
2023-03-19T02:29:18.971Z,78.74
2023-03-19T02:32:28.137Z,78.66
2023-03-19T02:35:39.007Z,78.24
2023-03-19T02:38:50.017Z,78.12
2023-03-19T02:42:02.164Z,78.97
2023-03-19T02:45:13.228Z,79.57
2023-03-19T02:48:21.824Z,79.64
2023-03-19T02:51:30.618Z,79.31
2023-03-19T02:54:38.979Z,78.99
2023-03-19T02:57:48.941Z,79.09
2023-03-19T03:00:57.401Z,78.56
2023-03-19T03:04:06.223Z,78.92
2023-03-19T03:07:14.425Z,79.04
2023-03-19T03:10:23.378Z,77.83
2023-03-19T03:13:33.444Z,79.61
2023-03-19T03:16:43.263Z,79.61
2023-03-19T03:19:52.099Z,79.22
2023-03-19T03:23:00.923Z,78.38
2023-03-19T03:26:09.161Z,79.43
2023-03-19T03:29:18.739Z,79.12
2023-03-19T03:32:27.492Z,78.27
2023-03-19T03:35:35.692Z,78.41
2023-03-19T03:38:44.558Z,78.25
2023-03-19T03:41:53.949Z,78.36
2023-03-19T03:45:03.657Z,79.16
2023-03-19T03:48:12.284Z,78.75
2023-03-19T03:51:22.157Z,78.25
2023-03-19T03:54:30.395Z,78.96
2023-03-19T03:57:38.609Z,78.76
2023-03-19T04:00:48.474Z,78.80
2023-03-19T04:03:56.898Z,78.19
2023-03-19T04:07:06.693Z,78.04
2023-03-19T04:10:25.892Z,77.44
2023-03-19T04:13:36.818Z,77.90
2023-03-19T04:16:48.300Z,78.19
2023-03-19T04:19:56.658Z,77.86
2023-03-19T04:23:04.804Z,77.12
2023-03-19T04:26:13.891Z,77.87
2023-03-19T04:29:23.667Z,77.89
2023-03-19T04:32:35.520Z,77.72
2023-03-19T04:35:43.798Z,77.12
2023-03-19T04:38:52.624Z,77.60
2023-03-19T04:42:01.778Z,77.26
2023-03-19T04:45:19.543Z,77.09
2023-03-19T04:48:29.081Z,76.96
2023-03-19T04:51:37.548Z,76.45
2023-03-19T04:54:45.753Z,76.73
2023-03-19T04:57:53.996Z,77.08
2023-03-19T05:01:07.948Z,76.56
2023-03-19T05:04:40.154Z,76.47
2023-03-19T05:07:52.140Z,76.88
2023-03-19T05:11:00.373Z,76.53
2023-03-19T05:14:14.384Z,76.80
2023-03-19T05:17:45.948Z,77.02
2023-03-19T05:21:04.885Z,76.83
2023-03-19T05:24:13.034Z,77.98
2023-03-19T05:27:21.984Z,77.00
2023-03-19T05:30:37.854Z,77.20
2023-03-19T05:33:50.637Z,77.56
2023-03-19T05:37:00.639Z,77.83
2023-03-19T05:40:12.339Z,78.04
2023-03-19T05:43:22.647Z,77.52
2023-03-19T05:46:32.063Z,77.25
2023-03-19T05:49:40.502Z,76.58
2023-03-19T05:52:50.066Z,76.83
2023-03-19T05:55:58.596Z,76.88
2023-03-19T05:59:08.974Z,76.11
2023-03-19T06:02:21.496Z,75.07
2023-03-19T06:05:32.923Z,74.18
2023-03-19T06:08:49.855Z,72.98
2023-03-19T06:12:06.322Z,72.79
2023-03-19T06:15:33.195Z,72.02
2023-03-19T06:18:47.215Z,71.79
2023-03-19T06:21:56.935Z,70.93
2023-03-19T06:25:07.700Z,71.70
2023-03-19T06:28:18.435Z,70.24
2023-03-19T06:31:27.591Z,69.88
2023-03-19T06:34:42.000Z,70.16
2023-03-19T06:37:50.842Z,69.68
2023-03-19T06:41:00.824Z,69.75
2023-03-19T06:44:09.137Z,70.49
2023-03-19T06:47:17.767Z,69.60
2023-03-19T06:50:27.258Z,69.59
2023-03-19T06:53:36.356Z,69.78
2023-03-19T06:56:46.198Z,69.28
2023-03-19T06:59:54.454Z,69.59
2023-03-19T07:03:02.583Z,68.73
2023-03-19T07:06:10.791Z,69.70
2023-03-19T07:09:18.971Z,69.56
2023-03-19T07:12:29.101Z,68.69
2023-03-19T07:15:37.308Z,68.71
2023-03-19T07:18:45.586Z,67.39
2023-03-19T07:21:54.033Z,68.05
2023-03-19T07:25:02.241Z,68.25
2023-03-19T07:28:11.755Z,67.81
2023-03-19T07:31:20.191Z,67.71
2023-03-19T07:34:28.459Z,68.11
2023-03-19T07:37:36.784Z,68.01
2023-03-19T07:40:54.955Z,68.19
2023-03-19T07:44:14.107Z,68.24
2023-03-19T07:47:28.892Z,68.16
2023-03-19T07:50:38.202Z,68.17
2023-03-19T07:53:46.684Z,67.24
2023-03-19T07:56:54.924Z,67.54
2023-03-19T08:00:05.258Z,68.24
2023-03-19T08:03:21.905Z,68.26
2023-03-19T08:06:30.650Z,67.28
2023-03-19T08:09:39.551Z,67.36
2023-03-19T08:12:49.008Z,67.48
2023-03-19T08:15:58.688Z,67.49
2023-03-19T08:19:06.915Z,66.75
2023-03-19T08:22:15.351Z,67.01
2023-03-19T08:25:23.784Z,66.51
2023-03-19T08:28:32.037Z,65.77
2023-03-19T08:31:42.661Z,65.35
2023-03-19T08:34:51.391Z,64.24
2023-03-19T08:37:59.967Z,64.87
2023-03-19T08:41:09.695Z,63.86
2023-03-19T08:44:17.843Z,62.38
2023-03-19T08:47:27.691Z,62.70
2023-03-19T08:50:36.414Z,62.20
2023-03-19T08:53:44.798Z,62.46
2023-03-19T08:56:52.982Z,62.72
2023-03-19T09:00:01.546Z,63.48
2023-03-19T09:03:11.403Z,63.57
2023-03-19T09:06:19.796Z,63.32
2023-03-19T09:09:28.342Z,63.60
2023-03-19T09:12:36.745Z,62.58
2023-03-19T09:15:44.995Z,61.69
2023-03-19T09:18:55.796Z,61.81
2023-03-19T09:22:06.874Z,60.90
2023-03-19T09:25:15.347Z,61.46
2023-03-19T09:28:24.122Z,62.14
2023-03-19T09:31:32.651Z,61.38
2023-03-19T09:34:42.281Z,61.88
2023-03-19T09:37:52.003Z,60.62
2023-03-19T09:41:11.341Z,60.33
2023-03-19T09:44:29.689Z,60.71
2023-03-19T09:47:39.597Z,57.92
2023-03-19T09:50:51.560Z,58.58
2023-03-19T09:54:05.166Z,57.62
2023-03-19T09:57:15.101Z,58.20
2023-03-19T10:00:27.210Z,57.95
2023-03-19T10:03:51.378Z,58.08
2023-03-19T10:07:16.360Z,57.23
2023-03-19T10:10:44.923Z,57.92
2023-03-19T10:14:24.133Z,58.05
2023-03-19T10:17:38.664Z,56.61
2023-03-19T10:20:58.978Z,56.53
2023-03-19T10:24:16.546Z,57.91
2023-03-19T10:27:29.687Z,57.34
2023-03-19T10:30:38.673Z,55.88
2023-03-19T10:33:58.104Z,56.82
2023-03-19T10:37:15.253Z,55.56
2023-03-19T10:40:38.227Z,54.21
2023-03-19T10:43:54.215Z,54.60
2023-03-19T10:47:14.268Z,56.12
2023-03-19T10:50:31.132Z,60.04
2023-03-19T10:53:41.282Z,60.50
2023-03-19T10:56:55.689Z,58.16
2023-03-19T11:00:09.245Z,56.12
2023-03-19T11:03:33.020Z,56.61
2023-03-19T11:06:41.643Z,55.87
2023-03-19T11:09:52.272Z,57.81
2023-03-19T11:13:07.265Z,56.00
2023-03-19T11:16:16.172Z,57.18
2023-03-19T11:19:29.560Z,55.75
2023-03-19T11:22:40.427Z,54.88
2023-03-19T11:25:52.381Z,57.69
2023-03-19T11:29:05.974Z,60.06
2023-03-19T11:32:45.750Z,59.10
2023-03-19T11:36:09.894Z,58.17
2023-03-19T11:39:30.438Z,58.19
2023-03-19T11:43:06.856Z,55.57
2023-03-19T11:46:38.947Z,53.79
2023-03-19T11:50:05.774Z,52.13
2023-03-19T11:56:50.067Z,53.73
2023-03-19T12:00:23.098Z,57.28
2023-03-19T12:04:22.142Z,57.43
2023-03-19T12:07:41.168Z,55.70
2023-03-19T12:11:09.464Z,56.01
2023-03-19T12:14:46.611Z,55.57
2023-03-19T12:18:11.929Z,53.09
2023-03-19T12:21:29.284Z,52.94
2023-03-19T12:25:05.424Z,52.28
2023-03-19T12:28:23.991Z,52.49
2023-03-19T12:31:51.973Z,51.54
2023-03-19T12:35:09.922Z,48.89
2023-03-19T12:38:27.972Z,50.46
2023-03-19T12:41:44.121Z,53.96
2023-03-19T12:44:56.863Z,53.76
2023-03-19T12:48:11.358Z,53.70
2023-03-19T12:51:28.269Z,53.50
2023-03-19T12:54:42.722Z,54.90
2023-03-19T12:57:58.636Z,51.68
2023-03-19T13:01:14.630Z,56.62
2023-03-19T13:04:28.151Z,54.91
2023-03-19T13:07:51.518Z,52.37
2023-03-19T13:11:00.876Z,50.31
2023-03-19T13:14:22.960Z,51.19
2023-03-19T13:17:43.461Z,49.12
2023-03-19T13:21:11.609Z,48.88
2023-03-19T13:24:28.184Z,48.03
2023-03-19T13:27:37.681Z,47.05
2023-03-19T13:31:02.598Z,45.20
2023-03-19T13:34:28.370Z,45.87
2023-03-19T13:37:37.555Z,45.69
2023-03-19T13:40:50.691Z,44.75
2023-03-19T13:43:59.572Z,45.29
2023-03-19T13:47:42.459Z,47.48
2023-03-19T13:51:00.940Z,48.03
2023-03-19T13:54:20.051Z,49.94
2023-03-19T13:57:37.588Z,47.52
2023-03-19T14:00:59.803Z,48.47
2023-03-19T14:04:21.899Z,48.44
2023-03-19T14:07:37.632Z,48.52
2023-03-19T14:10:51.311Z,48.04
2023-03-19T14:14:05.496Z,49.00
2023-03-19T14:17:17.827Z,49.40
2023-03-19T14:20:37.240Z,47.57
2023-03-19T14:23:57.711Z,48.77
2023-03-19T14:27:18.166Z,48.54
2023-03-19T14:30:33.829Z,49.05
2023-03-19T14:33:49.063Z,48.68
2023-03-19T14:37:05.792Z,50.68
2023-03-19T14:40:20.314Z,49.67
2023-03-19T14:43:57.807Z,47.36
2023-03-19T14:47:34.253Z,46.01
2023-03-19T14:51:40.680Z,45.67
2023-03-19T14:54:56.931Z,45.28
2023-03-19T14:58:06.315Z,45.65
2023-03-19T15:01:15.014Z,44.29
2023-03-19T15:04:27.322Z,44.28
2023-03-19T15:07:39.766Z,44.59
2023-03-19T15:11:02.521Z,43.49
2023-03-19T15:14:43.507Z,44.45
2023-03-19T15:18:04.048Z,44.50
2023-03-19T15:21:13.500Z,44.23
2023-03-19T15:24:22.383Z,44.62
2023-03-19T15:27:32.508Z,45.29
2023-03-19T15:30:53.464Z,44.97
2023-03-19T15:34:22.335Z,44.99
2023-03-19T15:37:34.396Z,44.87
2023-03-19T15:40:43.454Z,44.92
2023-03-19T15:43:53.847Z,45.60
2023-03-19T15:47:09.730Z,45.68
2023-03-19T15:50:23.351Z,45.31
2023-03-19T15:53:36.694Z,45.11
2023-03-19T15:56:45.189Z,45.66
2023-03-19T15:59:57.345Z,46.08
2023-03-19T16:03:08.124Z,45.09
2023-03-19T16:06:26.939Z,45.56
2023-03-19T16:09:36.516Z,46.77
2023-03-19T16:12:51.158Z,48.01
2023-03-19T16:16:09.084Z,48.36
2023-03-19T16:19:36.750Z,46.64
2023-03-19T16:22:54.806Z,46.75
2023-03-19T16:26:21.829Z,48.42
2023-03-19T16:29:38.875Z,48.34
2023-03-19T16:33:00.565Z,48.48
2023-03-19T16:36:14.218Z,49.62
2023-03-19T16:39:34.240Z,50.27
2023-03-19T16:42:44.064Z,51.27
2023-03-19T16:46:04.901Z,51.31
2023-03-19T16:49:14.626Z,51.59
2023-03-19T16:52:25.675Z,52.22
2023-03-19T16:55:36.702Z,53.18
2023-03-19T16:58:48.178Z,54.32
2023-03-19T17:01:57.023Z,53.88
2023-03-19T17:05:13.894Z,54.76
2023-03-19T17:08:23.236Z,55.13
2023-03-19T17:11:36.910Z,55.42
2023-03-19T17:14:45.680Z,56.77
2023-03-19T17:17:54.697Z,57.48
2023-03-19T17:21:11.120Z,58.66
2023-03-19T17:24:26.218Z,59.62
2023-03-19T17:27:34.857Z,59.54
2023-03-19T17:30:43.213Z,60.44
2023-03-19T17:33:52.935Z,60.95
2023-03-19T17:37:07.066Z,61.63
2023-03-19T17:40:21.435Z,61.65
2023-03-19T17:43:31.172Z,62.25
2023-03-19T17:46:43.718Z,62.12
2023-03-19T17:49:52.398Z,62.34
2023-03-19T17:53:02.246Z,63.57
2023-03-19T17:56:16.544Z,64.79
2023-03-19T17:59:25.364Z,65.27
2023-03-19T18:02:36.109Z,65.78
2023-03-19T18:05:44.997Z,65.77
2023-03-19T18:08:54.594Z,67.02
2023-03-19T18:12:02.984Z,66.67
2023-03-19T18:15:13.004Z,66.98
2023-03-19T18:18:23.749Z,67.98
2023-03-19T18:21:32.899Z,68.50
2023-03-19T18:24:42.980Z,69.24
2023-03-19T18:27:52.147Z,69.07
2023-03-19T18:31:01.524Z,69.34
2023-03-19T18:34:14.436Z,69.84
2023-03-19T18:37:23.047Z,70.72
2023-03-19T18:40:34.810Z,70.92
2023-03-19T18:43:43.125Z,71.31
2023-03-19T18:46:51.683Z,71.71
2023-03-19T18:50:00.421Z,71.85
2023-03-19T18:53:12.270Z,72.14
2023-03-19T18:56:27.013Z,73.94
2023-03-19T18:59:35.445Z,73.48
2023-03-19T19:02:45.306Z,73.41
2023-03-19T19:05:53.804Z,73.14
2023-03-19T19:09:03.501Z,72.66
2023-03-19T19:12:18.618Z,72.11
2023-03-19T19:15:32.370Z,72.53
2023-03-19T19:18:40.855Z,72.12
2023-03-19T19:21:49.276Z,72.70
2023-03-19T19:24:57.530Z,73.13
2023-03-19T19:28:19.520Z,74.13
2023-03-19T19:31:30.963Z,74.67
2023-03-19T19:34:39.347Z,74.30
2023-03-19T19:37:47.849Z,74.10
2023-03-19T19:41:00.348Z,74.03
2023-03-19T19:44:19.651Z,73.41
2023-03-19T19:47:29.021Z,73.48
2023-03-19T19:50:37.117Z,73.87
2023-03-19T19:53:46.347Z,73.80
2023-03-19T19:56:55.278Z,73.71
2023-03-19T20:00:08.181Z,73.58
2023-03-19T20:03:23.676Z,73.13
2023-03-19T20:06:31.987Z,73.54
2023-03-19T20:09:40.697Z,73.91
2023-03-19T20:12:54.671Z,73.63
2023-03-19T20:16:05.506Z,74.37
2023-03-19T20:19:20.173Z,73.28
2023-03-19T20:22:28.626Z,74.06
2023-03-19T20:25:37.842Z,74.75
2023-03-19T20:28:47.010Z,73.37
2023-03-19T20:31:58.283Z,74.16
2023-03-19T20:35:17.232Z,73.32
2023-03-19T20:38:27.189Z,74.26
2023-03-19T20:41:36.624Z,73.48
2023-03-19T20:44:45.991Z,72.76
2023-03-19T20:47:56.956Z,72.68
2023-03-19T20:51:06.177Z,72.10
2023-03-19T20:54:14.605Z,72.85
2023-03-19T20:57:30.782Z,72.05
2023-03-19T21:00:39.153Z,71.83
2023-03-19T21:03:49.060Z,71.91
2023-03-19T21:06:58.479Z,72.34
2023-03-19T21:10:31.322Z,72.17
2023-03-19T21:13:39.719Z,72.73
2023-03-19T21:16:48.125Z,73.65
2023-03-19T21:19:58.816Z,74.22
2023-03-19T21:23:17.307Z,73.70
2023-03-19T21:26:26.975Z,74.27
2023-03-19T21:29:35.613Z,73.93
2023-03-19T21:32:43.810Z,74.78
2023-03-19T21:35:55.313Z,74.26
2023-03-19T21:39:03.463Z,74.70
2023-03-19T21:42:18.808Z,75.29
2023-03-19T21:45:31.757Z,76.03
2023-03-19T21:48:41.058Z,75.61
2023-03-19T21:51:51.030Z,76.27
2023-03-19T21:54:59.261Z,76.49
2023-03-19T21:58:13.245Z,76.86
2023-03-19T22:01:25.059Z,77.12
2023-03-19T22:04:34.160Z,76.91
2023-03-19T22:07:44.136Z,76.94
2023-03-19T22:10:58.650Z,77.52
2023-03-19T22:14:14.056Z,76.80
2023-03-19T22:17:26.554Z,77.38
2023-03-19T22:20:35.178Z,76.92
2023-03-19T22:23:45.623Z,77.96
2023-03-19T22:26:58.872Z,77.33
2023-03-19T22:30:16.790Z,77.64
2023-03-19T22:33:28.334Z,77.81
2023-03-19T22:36:36.722Z,77.38
2023-03-19T22:39:46.597Z,77.83
2023-03-19T22:42:55.461Z,77.88
2023-03-19T22:46:09.139Z,79.48
2023-03-19T22:49:19.125Z,80.34
2023-03-19T22:52:29.107Z,80.89
2023-03-19T22:55:39.158Z,80.56
2023-03-19T22:58:48.717Z,81.08
2023-03-19T23:01:58.145Z,82.10
2023-03-19T23:05:28.969Z,82.10
2023-03-19T23:08:37.504Z,82.06
2023-03-19T23:11:49.426Z,81.15
2023-03-19T23:14:57.573Z,80.97
2023-03-19T23:18:16.149Z,81.13
2023-03-19T23:21:24.759Z,81.27
2023-03-19T23:24:34.106Z,81.47
2023-03-19T23:27:46.013Z,82.39
2023-03-19T23:30:54.987Z,83.23
2023-03-19T23:34:03.576Z,82.42
2023-03-19T23:37:12.310Z,82.74
2023-03-19T23:40:20.728Z,82.75
2023-03-19T23:43:30.990Z,82.83
2023-03-19T23:46:39.483Z,82.89
2023-03-19T23:49:47.947Z,83.38
2023-03-19T23:52:57.086Z,83.42
2023-03-19T23:56:15.879Z,83.26
2023-03-19T23:59:26.672Z,83.24
